createdAt,value
2022-09-16T00:00:32.421Z,5.80
2022-09-16T00:02:59.569Z,6.80
2022-09-16T00:05:26.567Z,3.83
2022-09-16T00:07:54.580Z,3.60
2022-09-16T00:10:22.968Z,6.40
2022-09-16T00:12:50.720Z,3.93
2022-09-16T00:15:18.638Z,5.23
2022-09-16T00:17:45.617Z,3.60
2022-09-16T00:20:12.714Z,3.50
2022-09-16T00:22:39.759Z,5.47
2022-09-16T00:25:07.132Z,3.50
2022-09-16T00:27:34.223Z,3.63
2022-09-16T00:30:01.243Z,5.93
2022-09-16T00:32:28.237Z,5.03
2022-09-16T00:34:55.209Z,3.65
2022-09-16T00:37:22.339Z,3.63
2022-09-16T00:39:49.928Z,3.53
2022-09-16T00:42:18.552Z,4.40
2022-09-16T00:44:59.658Z,4.57
2022-09-16T00:47:37.415Z,3.53
2022-09-16T00:50:30.499Z,3.43
2022-09-16T00:53:00.098Z,3.03
2022-09-16T00:55:30.888Z,6.43
2022-09-16T00:58:05.923Z,4.38
2022-09-16T01:00:33.107Z,3.60
2022-09-16T01:03:00.166Z,3.70
2022-09-16T01:05:28.335Z,3.67
2022-09-16T01:07:55.708Z,4.50
2022-09-16T01:10:26.679Z,3.40
2022-09-16T01:13:02.767Z,3.30
2022-09-16T01:15:49.959Z,4.55
2022-09-16T01:18:23.579Z,5.70
2022-09-16T01:21:11.313Z,3.97
2022-09-16T01:24:15.906Z,8.82
2022-09-16T01:27:28.213Z,3.73
2022-09-16T01:30:19.388Z,4.90
2022-09-16T01:33:11.341Z,4.17
2022-09-16T01:36:02.127Z,6.63
2022-09-16T01:39:08.262Z,3.50
2022-09-16T01:41:57.506Z,2.95
2022-09-16T01:44:53.791Z,4.32
2022-09-16T01:47:29.680Z,5.85
2022-09-16T01:50:12.683Z,3.63
2022-09-16T01:53:10.189Z,5.75
2022-09-16T01:55:45.694Z,6.53
2022-09-16T01:58:31.116Z,5.50
2022-09-16T02:01:08.207Z,4.60
2022-09-16T02:03:38.859Z,5.15
2022-09-16T02:06:10.587Z,7.15
2022-09-16T02:08:57.140Z,5.93
2022-09-16T02:11:25.412Z,5.10
2022-09-16T02:13:57.280Z,6.50
2022-09-16T02:16:35.792Z,4.50
2022-09-16T02:19:11.387Z,5.78
2022-09-16T02:21:45.463Z,5.28
2022-09-16T02:24:19.505Z,5.10
2022-09-16T02:26:55.652Z,5.20
2022-09-16T02:29:26.162Z,4.90
2022-09-16T02:31:58.118Z,5.68
2022-09-16T02:34:38.644Z,4.82
2022-09-16T02:37:11.978Z,5.13
2022-09-16T02:39:42.307Z,5.65
2022-09-16T02:42:09.286Z,8.70
2022-09-16T02:44:36.859Z,5.50
2022-09-16T02:47:13.609Z,4.60
2022-09-16T02:49:55.595Z,5.97
2022-09-16T02:52:52.201Z,6.45
2022-09-16T02:55:34.140Z,5.00
2022-09-16T02:58:01.155Z,5.65
2022-09-16T03:00:30.737Z,6.20
2022-09-16T03:02:57.875Z,5.88
2022-09-16T03:05:29.801Z,5.57
2022-09-16T03:07:58.078Z,9.18
2022-09-16T03:10:29.612Z,7.00
2022-09-16T03:13:21.563Z,4.50
2022-09-16T03:16:12.851Z,4.25
2022-09-16T03:19:28.358Z,5.13
2022-09-16T03:22:22.402Z,3.75
2022-09-16T03:25:01.306Z,3.83
2022-09-16T03:28:03.055Z,4.90
2022-09-16T03:30:35.207Z,3.83
2022-09-16T03:33:27.066Z,3.50
2022-09-16T03:36:00.027Z,3.13
2022-09-16T03:38:28.612Z,4.15
2022-09-16T03:40:55.735Z,4.10
2022-09-16T03:43:22.800Z,4.75
2022-09-16T03:45:51.367Z,6.15
2022-09-16T03:48:18.337Z,5.60
2022-09-16T03:50:46.079Z,5.47
2022-09-16T03:53:13.098Z,5.50
2022-09-16T03:55:40.090Z,9.30
2022-09-16T03:58:07.172Z,4.90
2022-09-16T04:00:34.429Z,5.40
2022-09-16T04:03:01.902Z,4.93
2022-09-16T04:05:29.359Z,5.18
2022-09-16T04:07:56.410Z,4.97
2022-09-16T04:10:23.436Z,5.03
2022-09-16T04:12:50.373Z,9.00
2022-09-16T04:15:17.393Z,5.10
2022-09-16T04:17:45.628Z,5.07
2022-09-16T04:20:12.533Z,4.30
2022-09-16T04:22:39.451Z,4.28
2022-09-16T04:25:07.006Z,4.55
2022-09-16T04:27:33.931Z,8.68
2022-09-16T04:30:00.931Z,6.40
2022-09-16T04:32:27.882Z,6.60
2022-09-16T04:34:55.599Z,6.47
2022-09-16T04:37:22.549Z,4.50
2022-09-16T04:39:49.511Z,5.57
2022-09-16T04:42:16.518Z,6.13
2022-09-16T04:44:44.983Z,7.80
2022-09-16T04:47:11.947Z,10.40
2022-09-16T04:49:38.824Z,10.45
2022-09-16T04:52:05.772Z,10.80
2022-09-16T04:54:32.730Z,9.93
2022-09-16T04:56:59.665Z,10.23
2022-09-16T04:59:26.607Z,7.22
2022-09-16T05:01:53.671Z,10.07
2022-09-16T05:04:20.751Z,7.35
2022-09-16T05:06:47.777Z,12.50
2022-09-16T05:09:14.730Z,10.82
2022-09-16T05:11:42.410Z,13.93
2022-09-16T05:14:17.620Z,11.80
2022-09-16T05:16:45.464Z,13.98
2022-09-16T05:19:14.185Z,11.13
2022-09-16T05:21:42.012Z,12.50
2022-09-16T05:24:11.787Z,13.52
2022-09-16T05:26:42.155Z,8.68
2022-09-16T05:29:13.308Z,16.80
2022-09-16T05:31:42.736Z,12.63
2022-09-16T05:34:15.857Z,15.73
2022-09-16T05:36:48.004Z,14.77
2022-09-16T05:39:25.914Z,13.10
2022-09-16T05:41:56.886Z,10.60
2022-09-16T05:44:25.068Z,10.00
2022-09-16T05:46:52.418Z,13.15
2022-09-16T05:49:21.257Z,7.88
2022-09-16T05:51:49.480Z,9.70
2022-09-16T05:54:18.746Z,10.40
2022-09-16T05:56:47.081Z,10.80
2022-09-16T05:59:15.227Z,8.10
2022-09-16T06:01:42.275Z,12.48
2022-09-16T06:04:13.530Z,8.80
2022-09-16T06:06:45.555Z,9.23
2022-09-16T06:09:19.642Z,7.80
2022-09-16T06:11:48.792Z,7.80
2022-09-16T06:14:17.188Z,8.60
2022-09-16T06:16:45.125Z,7.75
2022-09-16T06:19:15.281Z,9.85
2022-09-16T06:21:43.985Z,10.55
2022-09-16T06:24:12.080Z,7.88
2022-09-16T06:26:40.835Z,8.35
2022-09-16T06:29:09.487Z,9.65
2022-09-16T06:31:38.031Z,8.32
2022-09-16T06:34:06.086Z,13.43
2022-09-16T06:36:35.637Z,8.77
2022-09-16T06:39:04.255Z,11.05
2022-09-16T06:41:32.142Z,9.68
2022-09-16T06:43:59.691Z,10.27
2022-09-16T06:46:28.464Z,12.30
2022-09-16T06:48:59.316Z,8.80
2022-09-16T06:51:31.605Z,8.97
2022-09-16T06:54:04.566Z,10.32
2022-09-16T06:56:32.031Z,9.57
2022-09-16T06:59:00.549Z,11.27
2022-09-16T07:01:30.576Z,16.00
2022-09-16T07:03:58.734Z,10.03
2022-09-16T07:06:57.366Z,12.23
2022-09-16T07:09:17.740Z,10.00
2022-09-16T07:11:44.905Z,9.80
2022-09-16T07:14:12.714Z,10.53
2022-09-16T07:16:39.794Z,33.67
2022-09-16T07:19:06.918Z,11.53
2022-09-16T07:21:33.903Z,11.40
2022-09-16T07:24:02.917Z,8.40
2022-09-16T07:26:33.203Z,20.90
2022-09-16T07:29:03.673Z,10.37
2022-09-16T07:31:35.618Z,7.50
2022-09-16T07:34:11.181Z,8.27
2022-09-16T07:36:44.557Z,7.70
2022-09-16T07:39:14.020Z,8.80
2022-09-16T07:41:43.276Z,12.97
2022-09-16T07:44:14.124Z,7.27
2022-09-16T07:46:42.071Z,15.67
2022-09-16T07:49:12.678Z,7.10
2022-09-16T07:51:39.679Z,5.63
2022-09-16T07:54:11.546Z,8.80
2022-09-16T07:56:40.209Z,15.80
2022-09-16T07:59:13.048Z,4.10
2022-09-16T08:01:43.766Z,5.77
2022-09-16T08:04:12.192Z,4.43
2022-09-16T08:06:40.241Z,4.20
2022-09-16T08:09:15.501Z,3.93
2022-09-16T08:11:54.394Z,5.70
2022-09-16T08:14:21.360Z,4.23
2022-09-16T08:16:51.624Z,7.40
2022-09-16T08:19:22.746Z,4.40
2022-09-16T08:21:50.008Z,4.77
2022-09-16T08:24:17.030Z,5.53
2022-09-16T08:26:44.091Z,8.83
2022-09-16T08:29:11.217Z,5.53
2022-09-16T08:31:39.055Z,7.57
2022-09-16T08:34:06.861Z,7.30
2022-09-16T08:36:34.014Z,6.10
2022-09-16T08:39:01.761Z,4.90
2022-09-16T08:41:47.287Z,7.23
2022-09-16T08:44:51.973Z,4.30
2022-09-16T08:47:46.754Z,5.30
2022-09-16T08:50:18.410Z,4.77
2022-09-16T08:52:47.125Z,5.77
2022-09-16T08:55:31.811Z,4.63
2022-09-16T08:58:01.688Z,8.10
2022-09-16T09:00:28.800Z,4.17
2022-09-16T09:03:15.788Z,5.20
2022-09-16T09:05:54.965Z,4.90
2022-09-16T09:08:43.927Z,9.93
2022-09-16T09:11:37.301Z,9.10
2022-09-16T09:14:33.265Z,5.37
2022-09-16T09:17:18.349Z,4.90
2022-09-16T09:19:45.301Z,5.27
2022-09-16T09:22:31.100Z,6.47
2022-09-16T09:25:19.392Z,4.80
2022-09-16T09:28:14.213Z,4.77
2022-09-16T09:30:48.879Z,5.00
2022-09-16T09:33:47.432Z,6.20
2022-09-16T09:36:30.659Z,6.70
2022-09-16T09:39:16.797Z,5.87
2022-09-16T09:41:54.619Z,5.60
2022-09-16T09:44:49.263Z,6.77
2022-09-16T09:47:26.371Z,6.00
2022-09-16T09:50:02.669Z,4.47
2022-09-16T09:52:40.786Z,4.83
2022-09-16T09:55:31.932Z,5.57
2022-09-16T09:58:21.503Z,5.20
2022-09-16T10:00:48.594Z,8.70
2022-09-16T10:03:18.611Z,4.90
2022-09-16T10:05:47.213Z,9.33
2022-09-16T10:08:26.236Z,4.60
2022-09-16T10:10:56.796Z,5.60
2022-09-16T10:13:26.058Z,6.37
2022-09-16T10:16:10.920Z,6.20
2022-09-16T10:18:38.169Z,6.00
2022-09-16T10:21:15.580Z,6.60
2022-09-16T10:23:54.958Z,5.00
2022-09-16T10:26:29.098Z,4.90
2022-09-16T10:29:13.988Z,6.37
2022-09-16T10:31:42.953Z,4.93
2022-09-16T10:34:21.554Z,4.83
2022-09-16T10:37:00.304Z,7.33
2022-09-16T10:39:30.069Z,7.87
2022-09-16T10:41:57.411Z,5.67
2022-09-16T10:44:33.021Z,5.27
2022-09-16T10:47:10.862Z,5.43
2022-09-16T10:49:46.038Z,11.83
2022-09-16T10:52:25.699Z,9.90
2022-09-16T10:54:54.656Z,7.87
2022-09-16T10:57:30.955Z,7.10
2022-09-16T10:59:57.853Z,9.13
2022-09-16T11:02:51.868Z,10.00
2022-09-16T11:05:56.078Z,5.23
2022-09-16T11:09:05.213Z,6.97
2022-09-16T11:11:41.250Z,8.03
2022-09-16T11:14:29.213Z,7.83
2022-09-16T11:17:14.199Z,7.37
2022-09-16T11:20:06.708Z,8.27
2022-09-16T11:23:04.277Z,9.20
2022-09-16T11:25:48.634Z,8.50
2022-09-16T11:28:27.491Z,9.00
2022-09-16T11:31:18.188Z,6.60
2022-09-16T11:33:59.978Z,7.53
2022-09-16T11:36:47.207Z,8.10
2022-09-16T11:39:20.012Z,10.30
2022-09-16T11:42:00.325Z,12.63
2022-09-16T11:45:02.800Z,8.10
2022-09-16T11:47:57.562Z,6.67
2022-09-16T11:51:08.555Z,18.10
2022-09-16T11:53:57.648Z,6.20
2022-09-16T11:56:36.583Z,6.57
2022-09-16T11:59:15.988Z,6.00
2022-09-16T12:01:53.616Z,5.63
2022-09-16T12:04:31.824Z,7.93
2022-09-16T12:07:12.113Z,5.73
2022-09-16T12:09:45.183Z,6.20
2022-09-16T12:12:19.533Z,6.00
2022-09-16T12:14:53.443Z,5.03
2022-09-16T12:17:28.369Z,5.13
2022-09-16T12:20:07.318Z,5.23
2022-09-16T12:22:42.439Z,7.07
2022-09-16T12:25:18.067Z,6.17
2022-09-16T12:28:00.127Z,4.73
2022-09-16T12:30:35.927Z,6.03
2022-09-16T12:33:22.295Z,4.87
2022-09-16T12:36:09.592Z,5.87
2022-09-16T12:38:37.042Z,11.60
2022-09-16T12:41:27.581Z,5.13
2022-09-16T12:44:30.389Z,5.50
2022-09-16T12:47:00.291Z,6.30
2022-09-16T12:49:30.227Z,6.47
2022-09-16T12:52:19.079Z,6.47
2022-09-16T12:55:07.827Z,5.53
2022-09-16T12:57:54.782Z,7.73
2022-09-16T13:00:32.716Z,7.50
2022-09-16T13:03:09.212Z,5.97
2022-09-16T13:05:38.709Z,5.50
2022-09-16T13:08:19.081Z,6.13
2022-09-16T13:10:56.083Z,5.43
2022-09-16T13:13:37.873Z,7.00
2022-09-16T13:16:08.392Z,6.90
2022-09-16T13:18:50.937Z,5.90
2022-09-16T13:21:20.867Z,5.73
2022-09-16T13:24:05.390Z,6.20
2022-09-16T13:26:44.565Z,6.40
2022-09-16T13:29:44.607Z,6.20
2022-09-16T13:32:37.388Z,8.57
2022-09-16T13:35:20.293Z,10.40
2022-09-16T13:37:50.290Z,8.70
2022-09-16T13:40:21.980Z,10.40
2022-09-16T13:42:49.105Z,9.13
2022-09-16T13:45:40.113Z,10.07
2022-09-16T13:48:20.465Z,9.37
2022-09-16T13:50:58.671Z,8.57
2022-09-16T13:53:34.754Z,7.80
2022-09-16T13:56:25.748Z,8.83
2022-09-16T13:59:07.758Z,10.53
2022-09-16T14:01:59.876Z,9.33
2022-09-16T14:04:30.037Z,9.17
2022-09-16T14:07:02.849Z,10.63
2022-09-16T14:09:35.950Z,8.60
2022-09-16T14:12:25.027Z,9.67
2022-09-16T14:14:53.572Z,9.80
2022-09-16T14:17:28.822Z,8.50
2022-09-16T14:20:01.794Z,10.90
2022-09-16T14:22:29.122Z,9.37
2022-09-16T14:25:06.189Z,8.33
2022-09-16T14:27:43.689Z,9.73
2022-09-16T14:30:17.338Z,7.90
2022-09-16T14:32:46.148Z,8.07
2022-09-16T14:35:27.001Z,8.17
2022-09-16T14:38:03.487Z,8.27
2022-09-16T14:40:30.659Z,8.00
2022-09-16T14:43:03.617Z,7.60
2022-09-16T14:45:32.891Z,7.37
2022-09-16T14:48:05.649Z,7.57
2022-09-16T14:50:37.630Z,6.77
2022-09-16T14:53:09.276Z,7.43
2022-09-16T14:55:40.309Z,8.10
2022-09-16T14:58:11.194Z,8.33
2022-09-16T15:01:03.845Z,9.30
2022-09-16T15:03:44.015Z,11.13
2022-09-16T15:06:18.847Z,13.20
2022-09-16T15:09:26.936Z,20.77
2022-09-16T15:11:57.785Z,18.50
2022-09-16T15:14:25.907Z,14.70
2022-09-16T15:17:01.318Z,14.10
2022-09-16T15:19:41.084Z,10.67
2022-09-16T15:22:14.442Z,8.43
2022-09-16T15:24:42.544Z,8.83
2022-09-16T15:27:10.237Z,9.03
2022-09-16T15:29:49.692Z,10.63
2022-09-16T15:32:22.627Z,9.83
2022-09-16T15:35:12.458Z,10.20
2022-09-16T15:37:39.407Z,11.60
2022-09-16T15:40:23.209Z,10.03
2022-09-16T15:43:02.821Z,12.70
2022-09-16T15:45:29.931Z,9.53
2022-09-16T15:48:01.307Z,12.80
2022-09-16T15:50:31.373Z,10.47
2022-09-16T15:53:33.816Z,10.17
2022-09-16T15:56:07.967Z,9.83
2022-09-16T15:58:49.327Z,9.30
2022-09-16T16:01:53.122Z,12.73
2022-09-16T16:04:31.432Z,14.10
2022-09-16T16:06:59.654Z,13.37
2022-09-16T16:09:29.447Z,14.47
2022-09-16T16:11:58.281Z,13.23
2022-09-16T16:14:31.236Z,11.73
2022-09-16T16:17:12.812Z,12.47
2022-09-16T16:19:46.031Z,15.97
2022-09-16T16:22:13.801Z,10.33
2022-09-16T16:24:41.153Z,11.40
2022-09-16T16:27:08.888Z,13.10
2022-09-16T16:29:35.959Z,11.20
2022-09-16T16:32:07.445Z,9.53
2022-09-16T16:34:39.207Z,10.97
2022-09-16T16:37:07.671Z,10.60
2022-09-16T16:39:35.639Z,11.97
2022-09-16T16:42:05.986Z,10.57
2022-09-16T16:44:33.747Z,9.63
2022-09-16T16:47:01.466Z,9.90
2022-09-16T16:49:28.432Z,10.20
2022-09-16T16:51:57.935Z,9.90
2022-09-16T16:54:26.448Z,10.43
2022-09-16T16:56:55.021Z,9.90
2022-09-16T16:59:22.923Z,10.90
2022-09-16T17:01:52.838Z,11.63
2022-09-16T17:04:20.709Z,13.13
2022-09-16T17:06:54.089Z,11.50
2022-09-16T17:09:29.953Z,11.50
2022-09-16T17:11:59.079Z,9.47
2022-09-16T17:14:29.829Z,10.07
2022-09-16T17:16:57.125Z,6.27
2022-09-16T17:19:25.929Z,6.03
2022-09-16T17:21:53.913Z,5.63
2022-09-16T17:24:22.077Z,4.60
2022-09-16T17:26:50.153Z,10.80
2022-09-16T17:29:17.342Z,5.63
2022-09-16T17:31:44.796Z,5.47
2022-09-16T17:34:16.093Z,4.00
2022-09-16T17:36:46.402Z,3.60
2022-09-16T17:39:18.131Z,4.87
2022-09-16T17:41:47.591Z,6.73
2022-09-16T17:44:15.353Z,4.03
2022-09-16T17:46:44.073Z,5.27
2022-09-16T17:49:16.236Z,4.87
2022-09-16T17:51:43.838Z,4.13
2022-09-16T17:54:11.751Z,6.00
2022-09-16T17:56:39.738Z,4.37
2022-09-16T17:59:06.690Z,5.17
2022-09-16T18:01:33.675Z,5.90
2022-09-16T18:04:01.890Z,6.50
2022-09-16T18:06:35.871Z,4.83
2022-09-16T18:09:05.011Z,4.97
2022-09-16T18:11:31.999Z,7.85
2022-09-16T18:14:01.321Z,6.07
2022-09-16T18:16:29.572Z,6.73
2022-09-16T18:18:59.531Z,5.03
2022-09-16T18:21:27.677Z,5.03
2022-09-16T18:24:00.493Z,4.57
2022-09-16T18:26:28.763Z,4.18
2022-09-16T18:29:12.977Z,4.10
2022-09-16T18:31:49.429Z,4.47
2022-09-16T18:34:18.155Z,3.50
2022-09-16T18:36:46.167Z,3.33
2022-09-16T18:39:16.191Z,3.88
2022-09-16T18:41:45.842Z,5.33
2022-09-16T18:44:16.198Z,3.97
2022-09-16T18:46:43.714Z,4.55
2022-09-16T18:49:13.053Z,5.50
2022-09-16T18:51:46.137Z,2.72
2022-09-16T18:54:19.772Z,2.53
2022-09-16T18:56:46.866Z,2.40
2022-09-16T18:59:24.435Z,2.28
2022-09-16T19:01:54.572Z,2.67
2022-09-16T19:04:24.640Z,2.50
2022-09-16T19:06:54.069Z,2.20
2022-09-16T19:09:24.125Z,2.38
2022-09-16T19:11:56.462Z,4.97
2022-09-16T19:14:27.582Z,2.60
2022-09-16T19:16:55.333Z,2.83
2022-09-16T19:19:22.819Z,2.58
2022-09-16T19:21:49.887Z,2.70
2022-09-16T19:24:19.888Z,4.30
2022-09-16T19:26:48.107Z,3.10
2022-09-16T19:29:16.159Z,4.75
2022-09-16T19:31:45.061Z,4.90
2022-09-16T19:34:13.760Z,4.85
2022-09-16T19:36:41.915Z,4.38
2022-09-16T19:39:09.523Z,4.30
2022-09-16T19:41:38.554Z,5.20
2022-09-16T19:44:08.639Z,3.95
2022-09-16T19:46:40.837Z,5.25
2022-09-16T19:49:08.747Z,4.75
2022-09-16T19:51:35.780Z,5.10
2022-09-16T19:54:03.493Z,4.43
2022-09-16T19:56:33.017Z,5.30
2022-09-16T19:59:01.716Z,5.50
2022-09-16T20:01:34.551Z,3.90
2022-09-16T20:04:04.246Z,3.72
2022-09-16T20:06:36.646Z,4.70
2022-09-16T20:09:06.731Z,4.15
2022-09-16T20:11:37.172Z,4.68
2022-09-16T20:14:13.961Z,3.88
2022-09-16T20:16:41.221Z,4.00
2022-09-16T20:19:11.878Z,3.42
2022-09-16T20:21:40.160Z,3.75
2022-09-16T20:24:13.360Z,3.75
2022-09-16T20:26:40.354Z,4.32
2022-09-16T20:29:07.432Z,4.22
2022-09-16T20:31:36.552Z,3.97
2022-09-16T20:34:05.247Z,4.50
2022-09-16T20:36:36.163Z,5.95
2022-09-16T20:39:04.667Z,11.18
2022-09-16T20:41:33.465Z,4.68
2022-09-16T20:44:00.858Z,4.90
2022-09-16T20:46:31.076Z,4.15
2022-09-16T20:49:00.857Z,3.75
2022-09-16T20:51:31.728Z,3.90
2022-09-16T20:54:07.058Z,4.60
2022-09-16T20:56:39.892Z,3.90
2022-09-16T20:59:12.713Z,6.13
2022-09-16T21:01:41.753Z,3.97
2022-09-16T21:04:12.828Z,5.15
2022-09-16T21:06:40.165Z,4.05
2022-09-16T21:09:09.628Z,4.15
2022-09-16T21:11:38.177Z,4.93
2022-09-16T21:14:08.330Z,4.00
2022-09-16T21:16:37.835Z,5.22
2022-09-16T21:19:10.713Z,6.65
2022-09-16T21:21:44.360Z,9.73
2022-09-16T21:24:11.693Z,5.53
2022-09-16T21:26:40.947Z,4.60
2022-09-16T21:29:11.532Z,7.93
2022-09-16T21:31:40.800Z,5.85
2022-09-16T21:34:15.193Z,5.50
2022-09-16T21:36:45.087Z,5.07
2022-09-16T21:39:16.503Z,5.25
2022-09-16T21:41:47.515Z,4.95
2022-09-16T21:44:15.103Z,5.43
2022-09-16T21:46:45.544Z,5.03
2022-09-16T21:49:22.549Z,6.10
2022-09-16T21:51:50.739Z,5.63
2022-09-16T21:54:20.453Z,3.70
2022-09-16T21:56:50.885Z,4.65
2022-09-16T21:59:22.082Z,7.68
2022-09-16T22:01:50.687Z,4.15
2022-09-16T22:04:23.414Z,4.55
2022-09-16T22:06:53.047Z,4.45
2022-09-16T22:09:20.412Z,6.63
2022-09-16T22:11:47.558Z,4.25
2022-09-16T22:14:16.579Z,4.22
2022-09-16T22:16:44.467Z,4.18
2022-09-16T22:19:15.727Z,4.30
2022-09-16T22:21:45.615Z,4.57
2022-09-16T22:24:12.787Z,3.85
2022-09-16T22:26:40.173Z,4.75
2022-09-16T22:29:09.219Z,4.40
2022-09-16T22:31:38.919Z,4.97
2022-09-16T22:34:08.873Z,4.05
2022-09-16T22:36:37.449Z,6.75
2022-09-16T22:39:07.791Z,6.63
2022-09-16T22:41:35.033Z,3.97
2022-09-16T22:44:02.245Z,3.85
2022-09-16T22:46:32.076Z,4.50
2022-09-16T22:49:00.233Z,5.40
2022-09-16T22:51:29.025Z,4.15
2022-09-16T22:53:56.743Z,7.03
2022-09-16T22:56:27.127Z,4.40
2022-09-16T22:58:56.350Z,5.60
2022-09-16T23:01:26.745Z,5.22
2022-09-16T23:03:56.426Z,4.57
2022-09-16T23:06:24.890Z,6.38
2022-09-16T23:08:53.091Z,4.80
2022-09-16T23:11:24.574Z,6.20
2022-09-16T23:13:54.471Z,5.15
2022-09-16T23:16:27.196Z,4.90
2022-09-16T23:18:56.367Z,5.95
2022-09-16T23:21:23.961Z,6.50
2022-09-16T23:23:54.636Z,6.32
2022-09-16T23:26:24.660Z,7.13
2022-09-16T23:28:54.234Z,6.78
2022-09-16T23:31:25.274Z,4.63
2022-09-16T23:33:53.163Z,4.25
2022-09-16T23:36:21.433Z,4.68
2022-09-16T23:38:48.382Z,5.35
2022-09-16T23:41:23.227Z,4.95
2022-09-16T23:43:50.741Z,6.70
2022-09-16T23:46:21.001Z,7.78
2022-09-16T23:48:51.769Z,5.90
2022-09-16T23:51:23.581Z,4.43
2022-09-16T23:53:54.762Z,4.90
2022-09-16T23:56:22.332Z,5.47
2022-09-16T23:58:51.430Z,4.65
